sensor_id;sensor_type;location;lat;lon;timestamp;temperature;humidity
14749;DHT22;7466;53.574;9.976;2023-04-19T00:00:41;5.80;99.90
14749;DHT22;7466;53.574;9.976;2023-04-19T00:03:09;5.80;99.90
14749;DHT22;7466;53.574;9.976;2023-04-19T00:05:36;5.80;99.90
14749;DHT22;7466;53.574;9.976;2023-04-19T00:08:04;5.70;99.90
14749;DHT22;7466;53.574;9.976;2023-04-19T00:10:32;5.80;99.90
14749;DHT22;7466;53.574;9.976;2023-04-19T00:13:00;5.70;99.90
14749;DHT22;7466;53.574;9.976;2023-04-19T00:15:27;5.70;99.90
14749;DHT22;7466;53.574;9.976;2023-04-19T00:17:54;5.70;99.90
14749;DHT22;7466;53.574;9.976;2023-04-19T00:20:21;5.70;99.90
14749;DHT22;7466;53.574;9.976;2023-04-19T00:22:48;5.60;99.90
14749;DHT22;7466;53.574;9.976;2023-04-19T00:25:17;5.60;99.90
14749;DHT22;7466;53.574;9.976;2023-04-19T00:27:43;5.60;99.90
14749;DHT22;7466;53.574;9.976;2023-04-19T00:30:11;5.60;99.90
14749;DHT22;7466;53.574;9.976;2023-04-19T00:32:39;5.50;99.90
14749;DHT22;7466;53.574;9.976;2023-04-19T00:35:06;5.60;99.90
14749;DHT22;7466;53.574;9.976;2023-04-19T00:37:33;5.60;99.90
14749;DHT22;7466;53.574;9.976;2023-04-19T00:40:00;5.60;99.90
14749;DHT22;7466;53.574;9.976;2023-04-19T00:42:28;5.60;99.90
14749;DHT22;7466;53.574;9.976;2023-04-19T00:44:55;5.50;99.90
14749;DHT22;7466;53.574;9.976;2023-04-19T00:47:22;5.50;99.90
14749;DHT22;7466;53.574;9.976;2023-04-19T00:49:49;5.50;99.90
14749;DHT22;7466;53.574;9.976;2023-04-19T00:52:16;5.50;99.90
14749;DHT22;7466;53.574;9.976;2023-04-19T00:54:44;5.50;99.90
14749;DHT22;7466;53.574;9.976;2023-04-19T00:57:11;5.50;99.90
14749;DHT22;7466;53.574;9.976;2023-04-19T00:59:39;5.50;99.90
14749;DHT22;7466;53.574;9.976;2023-04-19T01:02:07;5.50;99.90
14749;DHT22;7466;53.574;9.976;2023-04-19T01:04:34;5.40;99.90
14749;DHT22;7466;53.574;9.976;2023-04-19T01:07:01;5.40;99.90
14749;DHT22;7466;53.574;9.976;2023-04-19T01:09:28;5.50;99.90
14749;DHT22;7466;53.574;9.976;2023-04-19T01:11:55;5.40;99.90
14749;DHT22;7466;53.574;9.976;2023-04-19T01:14:22;5.50;99.90
14749;DHT22;7466;53.574;9.976;2023-04-19T01:16:51;5.50;99.90
14749;DHT22;7466;53.574;9.976;2023-04-19T01:19:18;5.40;99.90
14749;DHT22;7466;53.574;9.976;2023-04-19T01:21:46;5.40;99.90
14749;DHT22;7466;53.574;9.976;2023-04-19T01:24:18;5.40;99.90
14749;DHT22;7466;53.574;9.976;2023-04-19T01:26:54;5.40;99.90
14749;DHT22;7466;53.574;9.976;2023-04-19T01:29:27;5.40;99.90
14749;DHT22;7466;53.574;9.976;2023-04-19T01:31:54;5.30;99.90
14749;DHT22;7466;53.574;9.976;2023-04-19T01:34:21;5.30;99.90
14749;DHT22;7466;53.574;9.976;2023-04-19T01:36:48;5.30;99.90
14749;DHT22;7466;53.574;9.976;2023-04-19T01:39:17;5.30;99.90
14749;DHT22;7466;53.574;9.976;2023-04-19T01:41:44;5.40;99.90
14749;DHT22;7466;53.574;9.976;2023-04-19T01:44:11;5.40;99.90
14749;DHT22;7466;53.574;9.976;2023-04-19T01:46:38;5.40;99.90
14749;DHT22;7466;53.574;9.976;2023-04-19T01:49:10;5.40;99.90
14749;DHT22;7466;53.574;9.976;2023-04-19T01:51:38;5.30;99.90
14749;DHT22;7466;53.574;9.976;2023-04-19T01:54:05;5.40;99.90
14749;DHT22;7466;53.574;9.976;2023-04-19T01:56:33;5.30;99.90
14749;DHT22;7466;53.574;9.976;2023-04-19T01:59:00;5.30;99.90
14749;DHT22;7466;53.574;9.976;2023-04-19T02:01:28;5.30;99.90
14749;DHT22;7466;53.574;9.976;2023-04-19T02:03:55;5.30;99.90
14749;DHT22;7466;53.574;9.976;2023-04-19T02:06:22;5.30;99.90
14749;DHT22;7466;53.574;9.976;2023-04-19T02:08:49;5.30;99.90
14749;DHT22;7466;53.574;9.976;2023-04-19T02:11:16;5.30;99.90
14749;DHT22;7466;53.574;9.976;2023-04-19T02:13:44;5.30;99.90
14749;DHT22;7466;53.574;9.976;2023-04-19T02:16:11;5.30;99.90
14749;DHT22;7466;53.574;9.976;2023-04-19T02:18:38;5.30;99.90
14749;DHT22;7466;53.574;9.976;2023-04-19T02:21:07;5.30;99.90
14749;DHT22;7466;53.574;9.976;2023-04-19T02:23:34;5.30;99.90
14749;DHT22;7466;53.574;9.976;2023-04-19T02:26:01;5.30;99.90
14749;DHT22;7466;53.574;9.976;2023-04-19T02:28:28;5.30;99.90
14749;DHT22;7466;53.574;9.976;2023-04-19T02:30:57;5.30;99.90
14749;DHT22;7466;53.574;9.976;2023-04-19T02:33:25;5.30;99.90
14749;DHT22;7466;53.574;9.976;2023-04-19T02:35:53;5.20;99.90
14749;DHT22;7466;53.574;9.976;2023-04-19T02:38:20;5.20;99.90
14749;DHT22;7466;53.574;9.976;2023-04-19T02:40:47;5.20;99.90
14749;DHT22;7466;53.574;9.976;2023-04-19T02:43:14;5.20;99.90
14749;DHT22;7466;53.574;9.976;2023-04-19T02:45:41;5.20;99.90
14749;DHT22;7466;53.574;9.976;2023-04-19T02:48:09;5.30;99.90
14749;DHT22;7466;53.574;9.976;2023-04-19T02:50:36;5.30;99.90
14749;DHT22;7466;53.574;9.976;2023-04-19T02:53:04;5.30;99.90
14749;DHT22;7466;53.574;9.976;2023-04-19T02:55:31;5.20;99.90
14749;DHT22;7466;53.574;9.976;2023-04-19T02:57:59;5.20;99.90
14749;DHT22;7466;53.574;9.976;2023-04-19T03:00:25;5.10;99.90
14749;DHT22;7466;53.574;9.976;2023-04-19T03:02:52;5.10;99.90
14749;DHT22;7466;53.574;9.976;2023-04-19T03:05:22;5.10;99.90
14749;DHT22;7466;53.574;9.976;2023-04-19T03:07:49;5.00;99.90
14749;DHT22;7466;53.574;9.976;2023-04-19T03:10:16;5.00;99.90
14749;DHT22;7466;53.574;9.976;2023-04-19T03:12:43;5.00;99.90
14749;DHT22;7466;53.574;9.976;2023-04-19T03:15:10;5.00;99.90
14749;DHT22;7466;53.574;9.976;2023-04-19T03:17:40;5.00;99.90
14749;DHT22;7466;53.574;9.976;2023-04-19T03:20:08;5.00;99.90
14749;DHT22;7466;53.574;9.976;2023-04-19T03:22:37;5.00;99.90
14749;DHT22;7466;53.574;9.976;2023-04-19T03:25:05;4.90;99.90
14749;DHT22;7466;53.574;9.976;2023-04-19T03:27:34;4.90;99.90
14749;DHT22;7466;53.574;9.976;2023-04-19T03:30:01;4.90;99.90
14749;DHT22;7466;53.574;9.976;2023-04-19T03:32:28;4.90;99.90
14749;DHT22;7466;53.574;9.976;2023-04-19T03:34:54;4.80;99.90
14749;DHT22;7466;53.574;9.976;2023-04-19T03:37:21;4.80;99.90
14749;DHT22;7466;53.574;9.976;2023-04-19T03:39:50;4.80;99.90
14749;DHT22;7466;53.574;9.976;2023-04-19T03:42:17;4.70;99.90
14749;DHT22;7466;53.574;9.976;2023-04-19T03:44:44;4.70;99.90
14749;DHT22;7466;53.574;9.976;2023-04-19T03:47:13;4.70;99.90
14749;DHT22;7466;53.574;9.976;2023-04-19T03:49:40;4.70;99.90
14749;DHT22;7466;53.574;9.976;2023-04-19T03:52:10;4.70;99.90
14749;DHT22;7466;53.574;9.976;2023-04-19T03:54:37;4.60;99.90
14749;DHT22;7466;53.574;9.976;2023-04-19T03:57:05;4.60;99.90
14749;DHT22;7466;53.574;9.976;2023-04-19T03:59:33;4.60;99.90
14749;DHT22;7466;53.574;9.976;2023-04-19T04:02:00;4.60;99.90
14749;DHT22;7466;53.574;9.976;2023-04-19T04:04:27;4.60;99.90
14749;DHT22;7466;53.574;9.976;2023-04-19T04:06:56;4.60;99.90
14749;DHT22;7466;53.574;9.976;2023-04-19T04:09:23;4.60;99.90
14749;DHT22;7466;53.574;9.976;2023-04-19T04:11:50;4.60;99.90
14749;DHT22;7466;53.574;9.976;2023-04-19T04:14:18;4.60;99.90
14749;DHT22;7466;53.574;9.976;2023-04-19T04:16:45;4.50;99.90
14749;DHT22;7466;53.574;9.976;2023-04-19T04:19:12;4.60;99.90
14749;DHT22;7466;53.574;9.976;2023-04-19T04:21:39;4.60;99.90
14749;DHT22;7466;53.574;9.976;2023-04-19T04:24:07;4.60;99.90
14749;DHT22;7466;53.574;9.976;2023-04-19T04:26:34;4.60;99.90
14749;DHT22;7466;53.574;9.976;2023-04-19T04:29:03;4.60;99.90
14749;DHT22;7466;53.574;9.976;2023-04-19T04:31:31;4.70;99.90
14749;DHT22;7466;53.574;9.976;2023-04-19T04:34:00;4.70;99.90
14749;DHT22;7466;53.574;9.976;2023-04-19T04:36:27;4.80;99.90
14749;DHT22;7466;53.574;9.976;2023-04-19T04:38:54;4.80;99.90
14749;DHT22;7466;53.574;9.976;2023-04-19T04:41:21;4.80;99.90
14749;DHT22;7466;53.574;9.976;2023-04-19T04:43:49;4.80;99.90
14749;DHT22;7466;53.574;9.976;2023-04-19T04:46:16;4.90;99.90
14749;DHT22;7466;53.574;9.976;2023-04-19T04:48:44;4.90;99.90
14749;DHT22;7466;53.574;9.976;2023-04-19T04:51:11;4.90;99.90
14749;DHT22;7466;53.574;9.976;2023-04-19T04:53:38;4.90;99.90
14749;DHT22;7466;53.574;9.976;2023-04-19T04:56:05;4.90;99.90
14749;DHT22;7466;53.574;9.976;2023-04-19T04:58:32;4.90;99.90
14749;DHT22;7466;53.574;9.976;2023-04-19T05:00:59;5.00;99.90
14749;DHT22;7466;53.574;9.976;2023-04-19T05:03:26;5.00;99.90
14749;DHT22;7466;53.574;9.976;2023-04-19T05:06:01;5.00;99.90
14749;DHT22;7466;53.574;9.976;2023-04-19T05:08:27;5.10;99.90
14749;DHT22;7466;53.574;9.976;2023-04-19T05:10:54;5.10;99.90
14749;DHT22;7466;53.574;9.976;2023-04-19T05:13:21;5.20;99.90
14749;DHT22;7466;53.574;9.976;2023-04-19T05:15:49;5.20;99.90
14749;DHT22;7466;53.574;9.976;2023-04-19T05:18:16;5.30;99.90
14749;DHT22;7466;53.574;9.976;2023-04-19T05:20:44;5.30;99.90
14749;DHT22;7466;53.574;9.976;2023-04-19T05:23:14;5.40;99.90
14749;DHT22;7466;53.574;9.976;2023-04-19T05:25:41;5.40;99.90
14749;DHT22;7466;53.574;9.976;2023-04-19T05:28:09;5.50;99.90
14749;DHT22;7466;53.574;9.976;2023-04-19T05:30:36;5.50;99.90
14749;DHT22;7466;53.574;9.976;2023-04-19T05:33:03;5.60;99.90
14749;DHT22;7466;53.574;9.976;2023-04-19T05:35:30;5.70;99.90
14749;DHT22;7466;53.574;9.976;2023-04-19T05:37:57;6.10;99.90
14749;DHT22;7466;53.574;9.976;2023-04-19T05:40:25;6.20;99.90
14749;DHT22;7466;53.574;9.976;2023-04-19T05:42:52;6.20;99.90
14749;DHT22;7466;53.574;9.976;2023-04-19T05:45:20;6.20;99.90
14749;DHT22;7466;53.574;9.976;2023-04-19T05:47:47;6.20;99.90
14749;DHT22;7466;53.574;9.976;2023-04-19T05:50:14;6.30;99.90
14749;DHT22;7466;53.574;9.976;2023-04-19T05:52:42;6.30;99.90
14749;DHT22;7466;53.574;9.976;2023-04-19T05:55:09;6.40;99.90
14749;DHT22;7466;53.574;9.976;2023-04-19T05:57:38;6.50;99.90
14749;DHT22;7466;53.574;9.976;2023-04-19T06:00:06;6.60;99.90
14749;DHT22;7466;53.574;9.976;2023-04-19T06:02:34;6.70;99.90
14749;DHT22;7466;53.574;9.976;2023-04-19T06:05:00;6.80;99.90
14749;DHT22;7466;53.574;9.976;2023-04-19T06:07:28;6.90;99.90
14749;DHT22;7466;53.574;9.976;2023-04-19T06:09:55;6.90;99.90
14749;DHT22;7466;53.574;9.976;2023-04-19T06:12:22;7.00;99.90
14749;DHT22;7466;53.574;9.976;2023-04-19T06:14:50;7.10;99.90
14749;DHT22;7466;53.574;9.976;2023-04-19T06:17:17;7.10;99.90
14749;DHT22;7466;53.574;9.976;2023-04-19T06:19:48;7.20;99.90
14749;DHT22;7466;53.574;9.976;2023-04-19T06:22:15;7.30;99.90
14749;DHT22;7466;53.574;9.976;2023-04-19T06:24:43;7.30;99.90
14749;DHT22;7466;53.574;9.976;2023-04-19T06:27:10;7.50;99.90
14749;DHT22;7466;53.574;9.976;2023-04-19T06:29:37;7.50;99.90
14749;DHT22;7466;53.574;9.976;2023-04-19T06:32:05;7.60;99.90
14749;DHT22;7466;53.574;9.976;2023-04-19T06:34:32;7.60;99.90
14749;DHT22;7466;53.574;9.976;2023-04-19T06:36:59;7.80;99.90
14749;DHT22;7466;53.574;9.976;2023-04-19T06:39:25;7.80;99.90
14749;DHT22;7466;53.574;9.976;2023-04-19T06:41:53;7.80;99.90
14749;DHT22;7466;53.574;9.976;2023-04-19T06:44:19;7.90;99.90
14749;DHT22;7466;53.574;9.976;2023-04-19T06:46:46;8.10;99.90
14749;DHT22;7466;53.574;9.976;2023-04-19T06:49:15;8.00;99.90
14749;DHT22;7466;53.574;9.976;2023-04-19T06:51:41;8.10;99.90
14749;DHT22;7466;53.574;9.976;2023-04-19T06:54:08;8.10;99.90
14749;DHT22;7466;53.574;9.976;2023-04-19T06:56:39;8.40;99.90
14749;DHT22;7466;53.574;9.976;2023-04-19T06:59:07;8.40;99.90
14749;DHT22;7466;53.574;9.976;2023-04-19T07:01:34;8.50;99.90
14749;DHT22;7466;53.574;9.976;2023-04-19T07:04:01;8.60;99.90
14749;DHT22;7466;53.574;9.976;2023-04-19T07:06:29;8.80;99.90
14749;DHT22;7466;53.574;9.976;2023-04-19T07:08:56;8.70;99.90
14749;DHT22;7466;53.574;9.976;2023-04-19T07:11:23;8.80;99.90
14749;DHT22;7466;53.574;9.976;2023-04-19T07:13:50;8.90;99.90
14749;DHT22;7466;53.574;9.976;2023-04-19T07:16:17;8.80;99.90
14749;DHT22;7466;53.574;9.976;2023-04-19T07:18:44;8.90;99.90
14749;DHT22;7466;53.574;9.976;2023-04-19T07:21:10;8.90;99.90
14749;DHT22;7466;53.574;9.976;2023-04-19T07:23:39;9.00;99.90
14749;DHT22;7466;53.574;9.976;2023-04-19T07:26:07;9.20;99.90
14749;DHT22;7466;53.574;9.976;2023-04-19T07:28:34;9.30;99.90
14749;DHT22;7466;53.574;9.976;2023-04-19T07:31:01;9.40;99.90
14749;DHT22;7466;53.574;9.976;2023-04-19T07:33:28;9.40;99.90
14749;DHT22;7466;53.574;9.976;2023-04-19T07:35:58;9.70;99.90
14749;DHT22;7466;53.574;9.976;2023-04-19T07:38:25;9.80;99.90
14749;DHT22;7466;53.574;9.976;2023-04-19T07:40:53;9.90;99.90
14749;DHT22;7466;53.574;9.976;2023-04-19T07:43:20;10.00;99.90
14749;DHT22;7466;53.574;9.976;2023-04-19T07:45:47;10.20;99.90
14749;DHT22;7466;53.574;9.976;2023-04-19T07:48:14;10.10;99.90
14749;DHT22;7466;53.574;9.976;2023-04-19T07:50:41;10.10;99.90
14749;DHT22;7466;53.574;9.976;2023-04-19T07:53:08;10.10;99.90
14749;DHT22;7466;53.574;9.976;2023-04-19T07:55:35;10.10;99.90
14749;DHT22;7466;53.574;9.976;2023-04-19T07:58:03;10.20;99.90
14749;DHT22;7466;53.574;9.976;2023-04-19T08:00:30;10.30;99.90
14749;DHT22;7466;53.574;9.976;2023-04-19T08:02:59;10.50;99.90
14749;DHT22;7466;53.574;9.976;2023-04-19T08:05:26;10.60;99.90
14749;DHT22;7466;53.574;9.976;2023-04-19T08:07:53;10.60;99.90
14749;DHT22;7466;53.574;9.976;2023-04-19T08:10:20;10.70;99.90
14749;DHT22;7466;53.574;9.976;2023-04-19T08:12:47;10.90;99.90
14749;DHT22;7466;53.574;9.976;2023-04-19T08:15:16;11.00;99.90
14749;DHT22;7466;53.574;9.976;2023-04-19T08:17:43;11.00;99.90
14749;DHT22;7466;53.574;9.976;2023-04-19T08:20:11;11.00;99.90
14749;DHT22;7466;53.574;9.976;2023-04-19T08:22:39;11.10;99.90
14749;DHT22;7466;53.574;9.976;2023-04-19T08:25:07;11.30;99.90
14749;DHT22;7466;53.574;9.976;2023-04-19T08:27:34;11.20;99.90
14749;DHT22;7466;53.574;9.976;2023-04-19T08:30:02;11.10;99.90
14749;DHT22;7466;53.574;9.976;2023-04-19T08:32:30;11.10;99.90
14749;DHT22;7466;53.574;9.976;2023-04-19T08:34:58;11.30;99.90
14749;DHT22;7466;53.574;9.976;2023-04-19T08:37:25;11.30;99.90
14749;DHT22;7466;53.574;9.976;2023-04-19T08:39:52;11.20;99.90
14749;DHT22;7466;53.574;9.976;2023-04-19T08:42:20;11.30;99.90
14749;DHT22;7466;53.574;9.976;2023-04-19T08:44:48;11.60;99.90
14749;DHT22;7466;53.574;9.976;2023-04-19T08:47:16;11.90;99.90
14749;DHT22;7466;53.574;9.976;2023-04-19T08:49:44;11.90;99.90
14749;DHT22;7466;53.574;9.976;2023-04-19T08:52:12;12.00;99.90
14749;DHT22;7466;53.574;9.976;2023-04-19T08:54:40;11.60;99.90
14749;DHT22;7466;53.574;9.976;2023-04-19T08:57:08;11.70;99.90
14749;DHT22;7466;53.574;9.976;2023-04-19T08:59:38;11.70;98.00
14749;DHT22;7466;53.574;9.976;2023-04-19T09:02:06;11.70;97.20
14749;DHT22;7466;53.574;9.976;2023-04-19T09:04:38;11.90;96.50
14749;DHT22;7466;53.574;9.976;2023-04-19T09:07:06;11.70;96.20
14749;DHT22;7466;53.574;9.976;2023-04-19T09:09:39;11.90;95.40
14749;DHT22;7466;53.574;9.976;2023-04-19T09:12:15;12.20;92.30
14749;DHT22;7466;53.574;9.976;2023-04-19T09:14:45;12.10;92.00
14749;DHT22;7466;53.574;9.976;2023-04-19T09:17:13;12.70;92.40
14749;DHT22;7466;53.574;9.976;2023-04-19T09:19:44;12.80;87.80
14749;DHT22;7466;53.574;9.976;2023-04-19T09:22:13;12.80;86.50
14749;DHT22;7466;53.574;9.976;2023-04-19T09:24:41;13.20;85.90
14749;DHT22;7466;53.574;9.976;2023-04-19T09:27:15;13.30;81.50
14749;DHT22;7466;53.574;9.976;2023-04-19T09:29:52;13.70;80.10
14749;DHT22;7466;53.574;9.976;2023-04-19T09:32:19;13.80;73.80
14749;DHT22;7466;53.574;9.976;2023-04-19T09:34:51;13.60;68.60
14749;DHT22;7466;53.574;9.976;2023-04-19T09:37:20;13.70;66.60
14749;DHT22;7466;53.574;9.976;2023-04-19T09:39:47;14.70;63.60
14749;DHT22;7466;53.574;9.976;2023-04-19T09:42:16;14.40;64.10
14749;DHT22;7466;53.574;9.976;2023-04-19T09:44:58;14.80;65.10
14749;DHT22;7466;53.574;9.976;2023-04-19T09:47:26;14.80;65.10
14749;DHT22;7466;53.574;9.976;2023-04-19T09:50:06;14.40;62.90
14749;DHT22;7466;53.574;9.976;2023-04-19T09:52:35;14.70;64.10
14749;DHT22;7466;53.574;9.976;2023-04-19T09:55:03;14.00;59.90
14749;DHT22;7466;53.574;9.976;2023-04-19T09:57:32;13.60;58.80
14749;DHT22;7466;53.574;9.976;2023-04-19T09:59:59;14.30;59.40
14749;DHT22;7466;53.574;9.976;2023-04-19T10:02:30;15.00;57.40
14749;DHT22;7466;53.574;9.976;2023-04-19T10:04:58;14.70;57.20
14749;DHT22;7466;53.574;9.976;2023-04-19T10:07:31;14.10;56.10
14749;DHT22;7466;53.574;9.976;2023-04-19T10:10:00;13.90;57.00
14749;DHT22;7466;53.574;9.976;2023-04-19T10:12:29;14.10;54.90
14749;DHT22;7466;53.574;9.976;2023-04-19T10:14:57;14.60;53.70
14749;DHT22;7466;53.574;9.976;2023-04-19T10:17:24;14.50;51.80
14749;DHT22;7466;53.574;9.976;2023-04-19T10:19:55;13.70;52.70
14749;DHT22;7466;53.574;9.976;2023-04-19T10:22:23;13.80;52.20
14749;DHT22;7466;53.574;9.976;2023-04-19T10:25:10;13.90;51.30
14749;DHT22;7466;53.574;9.976;2023-04-19T10:27:38;13.60;50.20
14749;DHT22;7466;53.574;9.976;2023-04-19T10:30:06;13.90;51.00
14749;DHT22;7466;53.574;9.976;2023-04-19T10:32:45;14.30;49.70
14749;DHT22;7466;53.574;9.976;2023-04-19T10:35:17;14.30;50.60
14749;DHT22;7466;53.574;9.976;2023-04-19T10:38:05;13.60;50.80
14749;DHT22;7466;53.574;9.976;2023-04-19T10:40:59;13.50;50.60
14749;DHT22;7466;53.574;9.976;2023-04-19T10:43:29;13.00;50.50
14749;DHT22;7466;53.574;9.976;2023-04-19T10:45:58;13.70;51.40
14749;DHT22;7466;53.574;9.976;2023-04-19T10:48:38;14.10;51.00
14749;DHT22;7466;53.574;9.976;2023-04-19T10:51:15;14.20;51.20
14749;DHT22;7466;53.574;9.976;2023-04-19T10:53:51;14.70;49.90
14749;DHT22;7466;53.574;9.976;2023-04-19T10:56:21;14.30;48.80
14749;DHT22;7466;53.574;9.976;2023-04-19T10:59:11;13.90;48.30
14749;DHT22;7466;53.574;9.976;2023-04-19T11:01:40;14.30;48.70
14749;DHT22;7466;53.574;9.976;2023-04-19T11:04:08;14.20;48.00
14749;DHT22;7466;53.574;9.976;2023-04-19T11:06:36;14.00;47.30
14749;DHT22;7466;53.574;9.976;2023-04-19T11:09:03;13.70;47.80
14749;DHT22;7466;53.574;9.976;2023-04-19T11:11:34;13.80;47.50
14749;DHT22;7466;53.574;9.976;2023-04-19T11:14:02;13.50;47.30
14749;DHT22;7466;53.574;9.976;2023-04-19T11:16:29;13.40;47.20
14749;DHT22;7466;53.574;9.976;2023-04-19T11:18:56;13.50;47.30
14749;DHT22;7466;53.574;9.976;2023-04-19T11:21:23;13.70;47.60
14749;DHT22;7466;53.574;9.976;2023-04-19T11:24:05;13.60;47.40
14749;DHT22;7466;53.574;9.976;2023-04-19T11:26:34;13.80;47.60
14749;DHT22;7466;53.574;9.976;2023-04-19T11:29:02;13.80;47.70
14749;DHT22;7466;53.574;9.976;2023-04-19T11:31:31;14.30;47.60
14749;DHT22;7466;53.574;9.976;2023-04-19T11:33:58;13.90;45.70
14749;DHT22;7466;53.574;9.976;2023-04-19T11:36:25;13.80;46.40
14749;DHT22;7466;53.574;9.976;2023-04-19T11:38:53;14.40;46.10
14749;DHT22;7466;53.574;9.976;2023-04-19T11:41:20;14.20;45.90
14749;DHT22;7466;53.574;9.976;2023-04-19T11:43:48;13.90;46.40
14749;DHT22;7466;53.574;9.976;2023-04-19T11:46:15;13.80;46.60
14749;DHT22;7466;53.574;9.976;2023-04-19T11:48:50;13.70;46.60
14749;DHT22;7466;53.574;9.976;2023-04-19T11:51:17;13.90;46.60
14749;DHT22;7466;53.574;9.976;2023-04-19T11:53:46;14.90;45.10
14749;DHT22;7466;53.574;9.976;2023-04-19T11:56:13;15.00;45.00
14749;DHT22;7466;53.574;9.976;2023-04-19T11:58:42;14.80;45.60
14749;DHT22;7466;53.574;9.976;2023-04-19T12:01:12;15.20;45.70
14749;DHT22;7466;53.574;9.976;2023-04-19T12:03:41;14.50;45.00
14749;DHT22;7466;53.574;9.976;2023-04-19T12:06:12;14.80;45.50
14749;DHT22;7466;53.574;9.976;2023-04-19T12:08:42;15.00;44.90
14749;DHT22;7466;53.574;9.976;2023-04-19T12:11:10;14.20;44.80
14749;DHT22;7466;53.574;9.976;2023-04-19T12:13:37;14.20;45.60
14749;DHT22;7466;53.574;9.976;2023-04-19T12:16:06;14.20;45.50
14749;DHT22;7466;53.574;9.976;2023-04-19T12:18:44;13.90;46.10
14749;DHT22;7466;53.574;9.976;2023-04-19T12:21:26;14.10;46.10
14749;DHT22;7466;53.574;9.976;2023-04-19T12:23:55;13.60;46.00
14749;DHT22;7466;53.574;9.976;2023-04-19T12:26:22;13.80;46.00
14749;DHT22;7466;53.574;9.976;2023-04-19T12:28:50;14.20;45.40
14749;DHT22;7466;53.574;9.976;2023-04-19T12:31:16;14.90;45.40
14749;DHT22;7466;53.574;9.976;2023-04-19T12:33:54;14.80;45.00
14749;DHT22;7466;53.574;9.976;2023-04-19T12:36:21;15.30;44.30
14749;DHT22;7466;53.574;9.976;2023-04-19T12:38:48;15.00;44.10
14749;DHT22;7466;53.574;9.976;2023-04-19T12:41:15;15.60;44.40
14749;DHT22;7466;53.574;9.976;2023-04-19T12:43:42;14.90;44.10
14749;DHT22;7466;53.574;9.976;2023-04-19T12:46:08;15.60;45.10
14749;DHT22;7466;53.574;9.976;2023-04-19T12:48:35;15.90;45.30
14749;DHT22;7466;53.574;9.976;2023-04-19T12:51:04;16.20;45.00
14749;DHT22;7466;53.574;9.976;2023-04-19T12:53:32;15.80;43.90
14749;DHT22;7466;53.574;9.976;2023-04-19T12:55:59;16.00;45.40
14749;DHT22;7466;53.574;9.976;2023-04-19T12:58:31;16.70;44.20
14749;DHT22;7466;53.574;9.976;2023-04-19T13:00:58;16.20;43.20
14749;DHT22;7466;53.574;9.976;2023-04-19T13:03:31;17.00;43.30
14749;DHT22;7466;53.574;9.976;2023-04-19T13:06:01;16.50;43.50
14749;DHT22;7466;53.574;9.976;2023-04-19T13:08:29;16.50;43.80
14749;DHT22;7466;53.574;9.976;2023-04-19T13:10:56;15.30;45.00
14749;DHT22;7466;53.574;9.976;2023-04-19T13:13:24;15.20;45.50
14749;DHT22;7466;53.574;9.976;2023-04-19T13:15:51;15.10;45.90
14749;DHT22;7466;53.574;9.976;2023-04-19T13:18:18;14.90;44.80
14749;DHT22;7466;53.574;9.976;2023-04-19T13:20:45;16.60;43.90
14749;DHT22;7466;53.574;9.976;2023-04-19T13:23:12;16.50;42.10
14749;DHT22;7466;53.574;9.976;2023-04-19T13:25:40;16.20;42.30
14749;DHT22;7466;53.574;9.976;2023-04-19T13:28:07;16.00;42.40
14749;DHT22;7466;53.574;9.976;2023-04-19T13:30:34;16.40;42.40
14749;DHT22;7466;53.574;9.976;2023-04-19T13:33:02;16.10;41.80
14749;DHT22;7466;53.574;9.976;2023-04-19T13:35:29;15.60;41.50
14749;DHT22;7466;53.574;9.976;2023-04-19T13:37:56;15.30;42.80
14749;DHT22;7466;53.574;9.976;2023-04-19T13:40:23;15.40;43.60
14749;DHT22;7466;53.574;9.976;2023-04-19T13:42:51;16.40;42.70
14749;DHT22;7466;53.574;9.976;2023-04-19T13:45:19;17.70;41.90
14749;DHT22;7466;53.574;9.976;2023-04-19T13:47:53;17.40;40.50
14749;DHT22;7466;53.574;9.976;2023-04-19T13:50:20;15.80;40.30
14749;DHT22;7466;53.574;9.976;2023-04-19T13:52:59;15.70;40.80
14749;DHT22;7466;53.574;9.976;2023-04-19T13:55:27;15.30;42.00
14749;DHT22;7466;53.574;9.976;2023-04-19T13:58:01;15.80;41.90
14749;DHT22;7466;53.574;9.976;2023-04-19T14:00:28;15.50;41.60
14749;DHT22;7466;53.574;9.976;2023-04-19T14:02:57;16.50;41.20
14749;DHT22;7466;53.574;9.976;2023-04-19T14:05:24;16.00;41.00
14749;DHT22;7466;53.574;9.976;2023-04-19T14:07:51;15.30;42.20
14749;DHT22;7466;53.574;9.976;2023-04-19T14:10:18;15.40;43.00
14749;DHT22;7466;53.574;9.976;2023-04-19T14:12:45;15.40;42.00
14749;DHT22;7466;53.574;9.976;2023-04-19T14:15:14;15.70;41.60
14749;DHT22;7466;53.574;9.976;2023-04-19T14:17:41;14.30;42.50
14749;DHT22;7466;53.574;9.976;2023-04-19T14:20:09;13.80;44.60
14749;DHT22;7466;53.574;9.976;2023-04-19T14:22:37;13.40;45.00
14749;DHT22;7466;53.574;9.976;2023-04-19T14:25:05;12.90;45.30
14749;DHT22;7466;53.574;9.976;2023-04-19T14:27:32;12.70;45.90
14749;DHT22;7466;53.574;9.976;2023-04-19T14:29:59;12.70;46.80
14749;DHT22;7466;53.574;9.976;2023-04-19T14:32:27;12.20;46.70
14749;DHT22;7466;53.574;9.976;2023-04-19T14:34:54;11.80;47.10
14749;DHT22;7466;53.574;9.976;2023-04-19T14:37:22;12.00;48.00
14749;DHT22;7466;53.574;9.976;2023-04-19T14:39:49;12.10;47.70
14749;DHT22;7466;53.574;9.976;2023-04-19T14:42:16;12.00;47.30
14749;DHT22;7466;53.574;9.976;2023-04-19T14:44:44;11.90;47.00
14749;DHT22;7466;53.574;9.976;2023-04-19T14:47:12;12.00;47.30
14749;DHT22;7466;53.574;9.976;2023-04-19T14:49:40;11.90;47.30
14749;DHT22;7466;53.574;9.976;2023-04-19T14:52:07;11.80;47.30
14749;DHT22;7466;53.574;9.976;2023-04-19T14:54:34;11.90;47.90
14749;DHT22;7466;53.574;9.976;2023-04-19T14:57:01;12.00;47.80
14749;DHT22;7466;53.574;9.976;2023-04-19T14:59:28;12.00;47.00
14749;DHT22;7466;53.574;9.976;2023-04-19T15:01:55;12.00;46.80
14749;DHT22;7466;53.574;9.976;2023-04-19T15:04:22;12.00;47.30
14749;DHT22;7466;53.574;9.976;2023-04-19T15:06:50;11.70;47.00
14749;DHT22;7466;53.574;9.976;2023-04-19T15:09:17;11.70;47.60
14749;DHT22;7466;53.574;9.976;2023-04-19T15:11:44;11.70;47.70
14749;DHT22;7466;53.574;9.976;2023-04-19T15:14:11;11.70;48.10
14749;DHT22;7466;53.574;9.976;2023-04-19T15:16:38;11.60;48.20
14749;DHT22;7466;53.574;9.976;2023-04-19T15:19:05;11.50;47.80
14749;DHT22;7466;53.574;9.976;2023-04-19T15:21:33;11.60;47.50
14749;DHT22;7466;53.574;9.976;2023-04-19T15:24:01;11.50;47.00
14749;DHT22;7466;53.574;9.976;2023-04-19T15:26:29;11.70;46.70
14749;DHT22;7466;53.574;9.976;2023-04-19T15:28:56;11.60;46.20
14749;DHT22;7466;53.574;9.976;2023-04-19T15:31:23;11.80;46.30
14749;DHT22;7466;53.574;9.976;2023-04-19T15:33:50;11.90;46.20
14749;DHT22;7466;53.574;9.976;2023-04-19T15:36:17;11.80;45.60
14749;DHT22;7466;53.574;9.976;2023-04-19T15:38:44;11.80;44.90
14749;DHT22;7466;53.574;9.976;2023-04-19T15:41:13;11.60;44.10
14749;DHT22;7466;53.574;9.976;2023-04-19T15:43:46;11.70;45.00
14749;DHT22;7466;53.574;9.976;2023-04-19T15:46:14;11.80;45.10
14749;DHT22;7466;53.574;9.976;2023-04-19T15:48:41;11.70;45.10
14749;DHT22;7466;53.574;9.976;2023-04-19T15:51:10;11.90;45.40
14749;DHT22;7466;53.574;9.976;2023-04-19T15:53:37;11.90;45.40
14749;DHT22;7466;53.574;9.976;2023-04-19T15:56:05;12.00;45.80
14749;DHT22;7466;53.574;9.976;2023-04-19T15:58:33;11.90;46.20
14749;DHT22;7466;53.574;9.976;2023-04-19T16:01:00;11.80;46.40